Time;durP1;ratioP1;P1;durP2;ratioP2;P2;SDS_P1;SDS_P2;PMS_P1;PMS_P2;Temp;Humidity;BMP_temperature;BMP_pressure;BME280_temperature;BME280_humidity;BME280_pressure;Samples;Min_cycle;Max_cycle;Signal;HPM_P1;HPM_P2
2021/03/16 00:02:16;;;;;;;21.03;11.47;;;;;;;;;;5048537;28;20025;-84
2021/03/16 00:04:42;;;;;;;19.63;12.10;;;;;;;;;;5053907;28;20024;-83
2021/03/16 00:07:08;;;;;;;18.53;10.57;;;;;;;;;;5057061;28;20059;-83
2021/03/16 00:09:34;;;;;;;20.37;12.37;;;;;;;;;;5066272;28;20543;-84
2021/03/16 00:12:00;;;;;;;19.63;12.17;;;;;;;;;;5058993;28;20025;-82
2021/03/16 00:14:26;;;;;;;22.40;10.90;;;;;;;;;;5048140;28;20036;-83
2021/03/16 00:16:52;;;;;;;18.10;9.43;;;;;;;;;;5062413;28;20044;-83
2021/03/16 00:19:19;;;;;;;19.80;11.93;;;;;;;;;;5055023;28;20423;-84
2021/03/16 00:21:45;;;;;;;20.53;13.00;;;;;;;;;;5051190;28;20478;-84
2021/03/16 00:24:11;;;;;;;22.57;12.50;;;;;;;;;;5056314;28;20059;-83
2021/03/16 00:26:37;;;;;;;20.93;11.27;;;;;;;;;;5075307;28;20111;-83
2021/03/16 00:29:04;;;;;;;20.40;11.70;;;;;;;;;;5065214;28;20044;-83
2021/03/16 00:31:30;;;;;;;18.87;11.87;;;;;;;;;;5053820;28;20373;-83
2021/03/16 00:33:56;;;;;;;21.47;11.27;;;;;;;;;;5052577;28;20091;-83
2021/03/16 00:36:22;;;;;;;20.17;11.57;;;;;;;;;;5050529;28;20037;-83
2021/03/16 00:38:49;;;;;;;19.77;9.87;;;;;;;;;;5043207;28;20042;-84
2021/03/16 00:41:15;;;;;;;21.03;10.80;;;;;;;;;;5057200;28;20017;-83
2021/03/16 00:43:41;;;;;;;18.50;10.43;;;;;;;;;;5074307;28;20047;-82
2021/03/16 00:46:07;;;;;;;17.07;9.83;;;;;;;;;;5054057;28;20033;-85
2021/03/16 00:48:33;;;;;;;20.20;11.53;;;;;;;;;;5064484;28;20029;-83
2021/03/16 00:50:59;;;;;;;20.77;11.30;;;;;;;;;;5069850;28;20132;-84
2021/03/16 00:53:25;;;;;;;18.90;11.13;;;;;;;;;;5053498;28;20501;-82
2021/03/16 00:55:51;;;;;;;22.67;10.43;;;;;;;;;;5054184;28;20469;-82
2021/03/16 00:58:30;;;;;;;18.10;10.10;;;;;;;;;;5053883;28;20029;-83
2021/03/16 01:00:56;;;;;;;17.77;9.40;;;;;;;;;;5069170;28;20025;-83
2021/03/16 01:03:22;;;;;;;15.37;7.97;;;;;;;;;;5055577;28;20128;-83
2021/03/16 01:05:49;;;;;;;18.17;10.03;;;;;;;;;;5049287;28;20021;-85
2021/03/16 01:08:15;;;;;;;16.83;9.50;;;;;;;;;;5056232;28;20028;-84
2021/03/16 01:10:41;;;;;;;16.27;8.30;;;;;;;;;;5053085;28;20029;-84
2021/03/16 01:13:07;;;;;;;18.63;8.50;;;;;;;;;;5053274;28;20158;-83
2021/03/16 01:15:33;;;;;;;16.47;9.57;;;;;;;;;;5052626;28;20041;-83
2021/03/16 01:17:59;;;;;;;17.77;9.40;;;;;;;;;;5063584;28;20036;-82
2021/03/16 01:20:26;;;;;;;15.40;8.67;;;;;;;;;;5053358;28;20036;-84
2021/03/16 01:22:52;;;;;;;18.20;9.27;;;;;;;;;;5047873;28;20041;-83
2021/03/16 01:25:18;;;;;;;16.37;10.03;;;;;;;;;;5051373;28;20071;-83
2021/03/16 01:27:44;;;;;;;16.27;9.07;;;;;;;;;;5035893;28;20037;-83
2021/03/16 01:30:11;;;;;;;13.83;6.97;;;;;;;;;;5052175;28;20025;-84
2021/03/16 01:32:37;;;;;;;15.20;8.43;;;;;;;;;;5043640;28;20036;-84
2021/03/16 01:35:05;;;;;;;18.27;10.10;;;;;;;;;;5045658;28;20061;-83
2021/03/16 01:37:30;;;;;;;15.43;8.63;;;;;;;;;;5053823;28;20022;-83
2021/03/16 01:39:57;;;;;;;14.83;8.47;;;;;;;;;;5036873;28;20041;-83
2021/03/16 01:42:23;;;;;;;16.73;9.43;;;;;;;;;;5054247;28;20036;-84
2021/03/16 01:44:49;;;;;;;16.27;8.77;;;;;;;;;;5048878;28;20153;-84
2021/03/16 01:47:15;;;;;;;19.70;8.83;;;;;;;;;;5072093;28;20028;-84
2021/03/16 01:49:41;;;;;;;19.10;9.40;;;;;;;;;;5082029;28;20033;-83
2021/03/16 01:52:07;;;;;;;17.70;9.87;;;;;;;;;;5054829;28;20029;-83
2021/03/16 01:54:34;;;;;;;17.27;9.80;;;;;;;;;;5052970;28;20051;-85
2021/03/16 01:57:02;;;;;;;15.77;8.03;;;;;;;;;;5052390;28;20040;-84
2021/03/16 01:59:28;;;;;;;17.70;8.80;;;;;;;;;;5037623;28;20020;-84
2021/03/16 02:01:55;;;;;;;16.40;9.03;;;;;;;;;;5052043;28;20029;-83
2021/03/16 02:04:21;;;;;;;22.50;9.57;;;;;;;;;;5053499;28;20024;-83
2021/03/16 02:06:50;;;;;;;18.75;10.38;;;;;;;;;;5048398;28;20480;-83
2021/03/16 02:09:23;;;;;;;21.55;11.43;;;;;;;;;;5052771;28;20040;-85
2021/03/16 02:11:53;;;;;;;21.60;10.93;;;;;;;;;;5053985;28;20029;-84
2021/03/16 02:14:34;;;;;;;18.40;9.13;;;;;;;;;;5052517;28;20079;-85
2021/03/16 02:17:12;;;;;;;18.40;8.80;;;;;;;;;;5052145;28;20037;-82
2021/03/16 02:19:47;;;;;;;22.70;11.17;;;;;;;;;;5051495;28;20029;-83
2021/03/16 02:22:15;;;;;;;19.90;9.37;;;;;;;;;;5052388;28;20048;-83
2021/03/16 02:24:59;;;;;;;18.27;9.00;;;;;;;;;;5053436;28;20021;-83
2021/03/16 02:27:28;;;;;;;15.47;8.27;;;;;;;;;;5054061;28;20047;-84
2021/03/16 02:29:58;;;;;;;19.53;9.57;;;;;;;;;;5042443;28;20052;-84
2021/03/16 02:32:26;;;;;;;18.00;10.40;;;;;;;;;;5068783;28;20094;-83
2021/03/16 02:34:54;;;;;;;15.93;7.13;;;;;;;;;;5050493;28;20140;-83
2021/03/16 02:37:22;;;;;;;8.97;4.87;;;;;;;;;;5053640;28;20542;-84
2021/03/16 02:39:48;;;;;;;19.77;9.93;;;;;;;;;;5052095;28;20049;-83
2021/03/16 02:42:15;;;;;;;23.03;10.20;;;;;;;;;;5051239;28;20064;-84
2021/03/16 02:44:41;;;;;;;21.27;10.83;;;;;;;;;;5050846;28;20440;-83
2021/03/16 02:47:07;;;;;;;21.73;10.83;;;;;;;;;;5052529;28;20032;-83
2021/03/16 02:49:36;;;;;;;19.27;10.57;;;;;;;;;;5059638;28;20041;-82
2021/03/16 02:52:02;;;;;;;16.40;7.30;;;;;;;;;;5056789;28;20025;-83
2021/03/16 02:54:29;;;;;;;14.50;8.07;;;;;;;;;;5061780;28;20119;-82
2021/03/16 02:56:55;;;;;;;21.80;9.93;;;;;;;;;;5062376;28;20028;-83
2021/03/16 02:59:22;;;;;;;17.87;9.23;;;;;;;;;;5057976;28;20033;-83
2021/03/16 03:01:50;;;;;;;23.00;10.07;;;;;;;;;;5045744;28;20503;-83
2021/03/16 03:04:16;;;;;;;18.97;10.10;;;;;;;;;;5052331;28;20111;-84
2021/03/16 03:06:44;;;;;;;21.57;10.00;;;;;;;;;;5049336;28;20025;-83
2021/03/16 03:09:11;;;;;;;20.57;9.43;;;;;;;;;;5046514;28;20045;-82
2021/03/16 03:11:37;;;;;;;19.33;10.67;;;;;;;;;;5063088;28;20021;-83
2021/03/16 03:14:04;;;;;;;19.67;9.53;;;;;;;;;;5049592;28;20480;-83
2021/03/16 03:16:30;;;;;;;16.67;7.97;;;;;;;;;;5046253;28;20029;-82
2021/03/16 03:18:56;;;;;;;19.17;9.93;;;;;;;;;;5050427;28;20098;-84
2021/03/16 03:21:26;;;;;;;23.03;6.13;;;;;;;;;;5043345;28;20025;-84
2021/03/16 03:23:56;;;;;;;16.57;8.70;;;;;;;;;;5046732;28;20028;-83
2021/03/16 03:26:26;;;;;;;16.57;8.27;;;;;;;;;;5043909;28;20036;-85
2021/03/16 03:28:53;;;;;;;16.80;9.45;;;;;;;;;;5046569;28;20116;-83
2021/03/16 03:31:19;;;;;;;17.77;9.20;;;;;;;;;;5033942;28;20033;-84
2021/03/16 03:33:45;;;;;;;19.47;9.77;;;;;;;;;;5044130;28;20541;-83
2021/03/16 03:36:11;;;;;;;19.70;9.60;;;;;;;;;;5052118;28;20029;-83
2021/03/16 03:38:39;;;;;;;19.00;10.50;;;;;;;;;;5050246;28;20500;-83
2021/03/16 03:41:05;;;;;;;16.73;8.47;;;;;;;;;;5050574;28;20033;-84
2021/03/16 03:43:33;;;;;;;19.17;10.32;;;;;;;;;;5046794;28;20116;-83
2021/03/16 03:45:59;;;;;;;18.67;10.37;;;;;;;;;;5050374;28;20100;-83
2021/03/16 03:48:27;;;;;;;16.60;8.37;;;;;;;;;;5052196;28;20036;-83
2021/03/16 03:50:53;;;;;;;17.70;7.83;;;;;;;;;;5050940;28;20094;-82
2021/03/16 03:53:20;;;;;;;18.77;10.57;;;;;;;;;;5052315;28;20024;-83
2021/03/16 03:55:47;;;;;;;17.23;8.23;;;;;;;;;;5058221;28;20029;-82
2021/03/16 03:58:13;;;;;;;17.63;8.77;;;;;;;;;;5063331;28;20052;-82
2021/03/16 04:00:39;;;;;;;18.53;9.60;;;;;;;;;;5057419;28;20120;-82
2021/03/16 04:03:05;;;;;;;18.33;8.77;;;;;;;;;;5051095;28;20057;-83
2021/03/16 04:05:32;;;;;;;16.63;8.83;;;;;;;;;;5045418;28;20105;-81
2021/03/16 04:07:58;;;;;;;10.47;5.43;;;;;;;;;;5041141;28;20052;-86
2021/03/16 04:10:25;;;;;;;18.50;8.63;;;;;;;;;;5051407;28;20135;-84
2021/03/16 04:12:52;;;;;;;15.50;7.67;;;;;;;;;;5035522;28;20044;-82
2021/03/16 04:15:18;;;;;;;16.13;7.90;;;;;;;;;;5034090;28;20037;-84
2021/03/16 04:17:45;;;;;;;20.77;9.53;;;;;;;;;;5051014;28;20090;-83
2021/03/16 04:20:12;;;;;;;19.27;9.53;;;;;;;;;;5044949;28;20112;-83
2021/03/16 04:22:39;;;;;;;19.37;9.30;;;;;;;;;;5042134;28;20398;-83
2021/03/16 04:25:05;;;;;;;18.90;9.27;;;;;;;;;;5064872;28;20124;-82
2021/03/16 04:27:31;;;;;;;20.03;9.43;;;;;;;;;;5049985;28;20029;-82
2021/03/16 04:29:58;;;;;;;20.90;9.73;;;;;;;;;;5040815;28;20037;-82
2021/03/16 04:32:24;;;;;;;20.57;10.33;;;;;;;;;;5050149;28;20183;-84
2021/03/16 04:34:50;;;;;;;19.43;9.60;;;;;;;;;;5047849;28;20045;-82
2021/03/16 04:37:16;;;;;;;17.17;8.00;;;;;;;;;;5051757;28;20029;-82
2021/03/16 04:39:42;;;;;;;14.10;6.75;;;;;;;;;;5036485;28;20091;-80
2021/03/16 04:42:08;;;;;;;20.40;7.97;;;;;;;;;;5047664;28;20380;-84
2021/03/16 04:44:34;;;;;;;20.53;9.57;;;;;;;;;;5058604;28;20033;-83
2021/03/16 04:47:00;;;;;;;18.53;8.43;;;;;;;;;;5053604;28;20037;-83
2021/03/16 04:49:26;;;;;;;19.57;8.27;;;;;;;;;;5054334;28;20028;-82
2021/03/16 04:51:52;;;;;;;17.93;7.17;;;;;;;;;;5054271;28;20025;-81
2021/03/16 04:54:18;;;;;;;17.93;7.13;;;;;;;;;;5055462;28;20030;-84
2021/03/16 04:56:44;;;;;;;18.03;8.90;;;;;;;;;;5041178;28;20033;-82
2021/03/16 04:59:10;;;;;;;14.70;6.87;;;;;;;;;;5051011;28;20091;-83
2021/03/16 05:01:36;;;;;;;18.80;7.27;;;;;;;;;;5052676;28;20025;-83
2021/03/16 05:04:03;;;;;;;20.93;8.73;;;;;;;;;;5090550;28;20024;-81
2021/03/16 05:06:29;;;;;;;17.70;7.00;;;;;;;;;;5057475;28;20025;-85
2021/03/16 05:08:56;;;;;;;23.53;9.53;;;;;;;;;;5034716;28;20567;-85
2021/03/16 05:11:23;;;;;;;16.47;7.53;;;;;;;;;;5044750;28;20033;-84
2021/03/16 05:13:49;;;;;;;18.60;7.77;;;;;;;;;;5053087;28;20519;-84
2021/03/16 05:16:15;;;;;;;17.10;7.80;;;;;;;;;;5051204;28;20029;-83
2021/03/16 05:18:41;;;;;;;18.90;8.33;;;;;;;;;;5054617;28;20095;-84
2021/03/16 05:21:07;;;;;;;15.53;8.07;;;;;;;;;;5043176;28;20159;-81
2021/03/16 05:23:33;;;;;;;15.43;6.17;;;;;;;;;;5053072;28;20033;-82
2021/03/16 05:25:59;;;;;;;21.03;6.83;;;;;;;;;;5035330;28;20092;-83
2021/03/16 05:28:25;;;;;;;16.40;6.80;;;;;;;;;;5048479;28;20033;-82
2021/03/16 05:30:51;;;;;;;21.80;8.80;;;;;;;;;;5055187;28;20032;-82
2021/03/16 05:33:18;;;;;;;14.53;7.30;;;;;;;;;;5053674;28;20025;-85
2021/03/16 05:35:45;;;;;;;18.60;8.60;;;;;;;;;;5055392;28;20112;-84
2021/03/16 05:38:11;;;;;;;16.60;7.50;;;;;;;;;;5055788;28;20025;-83
2021/03/16 05:40:37;;;;;;;17.40;6.67;;;;;;;;;;5053921;28;20044;-84
2021/03/16 05:43:03;;;;;;;11.50;6.20;;;;;;;;;;5041703;28;20029;-84
2021/03/16 05:45:30;;;;;;;13.80;5.27;;;;;;;;;;5049199;28;20035;-82
2021/03/16 05:47:56;;;;;;;16.03;7.07;;;;;;;;;;5040212;28;20033;-85
2021/03/16 05:50:22;;;;;;;12.60;5.67;;;;;;;;;;5054873;28;20040;-84
2021/03/16 05:52:48;;;;;;;17.23;6.73;;;;;;;;;;5038881;28;20033;-83
2021/03/16 05:55:14;;;;;;;15.73;6.33;;;;;;;;;;5053726;28;20049;-85
2021/03/16 05:57:40;;;;;;;24.20;8.33;;;;;;;;;;5060256;28;20031;-83
2021/03/16 06:00:07;;;;;;;13.33;4.87;;;;;;;;;;5054444;28;20051;-84
2021/03/16 06:02:37;;;;;;;14.53;4.13;;;;;;;;;;5053489;28;20061;-80
2021/03/16 06:05:03;;;;;;;13.63;5.10;;;;;;;;;;5053672;28;20444;-79
2021/03/16 06:07:29;;;;;;;14.83;5.47;;;;;;;;;;5055735;28;20098;-80
2021/03/16 06:09:55;;;;;;;14.87;6.23;;;;;;;;;;5056759;28;20464;-82
2021/03/16 06:12:36;;;;;;;19.37;7.33;;;;;;;;;;5051886;28;20034;-78
2021/03/16 06:15:14;;;;;;;22.07;7.63;;;;;;;;;;5054607;28;20071;-77
2021/03/16 06:17:44;;;;;;;17.83;7.20;;;;;;;;;;5051595;28;20026;-77
2021/03/16 06:20:11;;;;;;;16.13;7.15;;;;;;;;;;5052829;28;20495;-77
2021/03/16 06:22:37;;;;;;;14.87;7.73;;;;;;;;;;5054286;28;20021;-78
2021/03/16 06:25:04;;;;;;;17.40;7.67;;;;;;;;;;5055014;28;20082;-76
2021/03/16 06:27:30;;;;;;;14.43;7.37;;;;;;;;;;5055559;28;20670;-77
2021/03/16 06:29:56;;;;;;;22.43;7.00;;;;;;;;;;5056398;28;20029;-76
2021/03/16 06:32:22;;;;;;;16.23;7.10;;;;;;;;;;5053010;28;20021;-75
2021/03/16 06:34:58;;;;;;;15.87;6.63;;;;;;;;;;5048278;28;20064;-78
2021/03/16 06:37:24;;;;;;;20.23;7.50;;;;;;;;;;5052958;28;20020;-81
2021/03/16 06:39:54;;;;;;;16.13;6.07;;;;;;;;;;5050820;28;20033;-79
2021/03/16 06:42:24;;;;;;;17.70;4.72;;;;;;;;;;5053250;28;20118;-80
2021/03/16 06:45:04;;;;;;;11.37;4.97;;;;;;;;;;5046397;28;20079;-78
2021/03/16 06:47:30;;;;;;;10.90;5.00;;;;;;;;;;5057682;28;20021;-79
2021/03/16 06:49:57;;;;;;;13.93;7.23;;;;;;;;;;5051972;28;20898;-77
2021/03/16 06:52:26;;;;;;;18.77;8.33;;;;;;;;;;5052805;28;20025;-79
2021/03/16 06:54:52;;;;;;;15.05;6.88;;;;;;;;;;5052583;28;20033;-79
2021/03/16 06:57:24;;;;;;;13.90;7.30;;;;;;;;;;5063052;28;20048;-82
2021/03/16 06:59:50;;;;;;;16.90;7.37;;;;;;;;;;5052326;28;20094;-82
2021/03/16 07:02:16;;;;;;;14.73;5.90;;;;;;;;;;5051059;28;20025;-81
2021/03/16 07:04:43;;;;;;;17.20;7.60;;;;;;;;;;5054032;28;20029;-84
2021/03/16 07:07:10;;;;;;;18.27;7.00;;;;;;;;;;5049543;28;20029;-82
2021/03/16 07:09:36;;;;;;;17.70;7.30;;;;;;;;;;5039917;28;20029;-81
2021/03/16 07:12:03;;;;;;;19.13;7.10;;;;;;;;;;5043303;28;20021;-83
2021/03/16 07:14:31;;;;;;;12.27;5.97;;;;;;;;;;5065877;28;20008;-81
2021/03/16 07:17:00;;;;;;;14.60;6.93;;;;;;;;;;5054301;28;20040;-81
2021/03/16 07:19:26;;;;;;;18.85;7.47;;;;;;;;;;5048039;28;20427;-81
2021/03/16 07:21:55;;;;;;;16.93;7.90;;;;;;;;;;5051773;28;20021;-81
2021/03/16 07:24:25;;;;;;;19.02;7.90;;;;;;;;;;5057911;28;20090;-81
2021/03/16 07:26:53;;;;;;;16.50;7.13;;;;;;;;;;5052206;28;20072;-81
2021/03/16 07:29:19;;;;;;;12.40;6.57;;;;;;;;;;5054881;28;20117;-83
2021/03/16 07:31:45;;;;;;;13.73;6.63;;;;;;;;;;5053212;28;20457;-82
2021/03/16 07:34:13;;;;;;;13.47;5.97;;;;;;;;;;5051148;28;20052;-82
2021/03/16 07:36:40;;;;;;;11.00;5.97;;;;;;;;;;5051221;28;20525;-82
2021/03/16 07:39:08;;;;;;;13.70;6.53;;;;;;;;;;5052381;28;20423;-84
2021/03/16 07:41:37;;;;;;;12.73;5.63;;;;;;;;;;5052934;28;20021;-81
2021/03/16 07:44:08;;;;;;;8.57;4.50;;;;;;;;;;5054399;28;20025;-83
2021/03/16 07:46:48;;;;;;;8.40;3.97;;;;;;;;;;5050899;28;20082;-82
2021/03/16 07:49:27;;;;;;;11.68;5.03;;;;;;;;;;5050172;28;20086;-81
2021/03/16 07:51:53;;;;;;;13.20;7.07;;;;;;;;;;5051724;28;20042;-82
2021/03/16 07:54:21;;;;;;;12.63;5.03;;;;;;;;;;5050748;28;20047;-82
2021/03/16 07:56:56;;;;;;;15.47;7.20;;;;;;;;;;5051882;28;20425;-83
2021/03/16 07:59:32;;;;;;;14.17;5.90;;;;;;;;;;5037486;28;20074;-79
2021/03/16 08:01:59;;;;;;;9.80;4.63;;;;;;;;;;5054393;28;20068;-79
2021/03/16 08:04:40;;;;;;;11.80;6.33;;;;;;;;;;5058770;28;20032;-80
2021/03/16 08:07:07;;;;;;;14.40;6.30;;;;;;;;;;5055616;28;20033;-80
2021/03/16 08:09:46;;;;;;;14.73;6.90;;;;;;;;;;5054712;28;20029;-79
2021/03/16 08:12:23;;;;;;;14.00;5.97;;;;;;;;;;5062036;28;20078;-80
2021/03/16 08:14:50;;;;;;;11.15;6.55;;;;;;;;;;5054662;28;20421;-80
2021/03/16 08:17:42;;;;;;;11.10;4.97;;;;;;;;;;5054714;28;20075;-79
2021/03/16 08:20:08;;;;;;;10.87;5.60;;;;;;;;;;5039813;28;20369;-78
2021/03/16 08:22:34;;;;;;;13.57;6.13;;;;;;;;;;5053476;28;20083;-79
2021/03/16 08:25:00;;;;;;;15.90;7.27;;;;;;;;;;5050160;28;20028;-79
2021/03/16 08:27:27;;;;;;;11.93;4.33;;;;;;;;;;5050100;28;20033;-79
2021/03/16 08:29:53;;;;;;;13.17;7.87;;;;;;;;;;5050446;28;20669;-77
2021/03/16 08:32:20;;;;;;;16.98;6.10;;;;;;;;;;5045732;28;20035;-77
2021/03/16 08:34:47;;;;;;;15.83;7.23;;;;;;;;;;5046593;28;20393;-77
2021/03/16 08:37:24;;;;;;;15.63;6.00;;;;;;;;;;5052738;28;20100;-76
2021/03/16 08:39:51;;;;;;;17.80;6.68;;;;;;;;;;5053643;28;20033;-77
2021/03/16 08:42:21;;;;;;;14.05;6.55;;;;;;;;;;5053064;28;20071;-77
2021/03/16 08:44:47;;;;;;;;;;;;;;;;;;5047168;28;20034;-77
2021/03/16 08:47:14;;;;;;;7.88;4.43;;;;;;;;;;5053843;28;20406;-77
2021/03/16 08:49:44;;;;;;;10.83;5.50;;;;;;;;;;5043588;28;20022;-76
2021/03/16 08:52:16;;;;;;;19.55;6.32;;;;;;;;;;5049319;28;20473;-78
2021/03/16 08:54:42;;;;;;;12.20;5.18;;;;;;;;;;5045256;28;20037;-78
2021/03/16 08:57:08;;;;;;;14.38;6.05;;;;;;;;;;5039426;28;20037;-79
2021/03/16 08:59:34;;;;;;;13.32;5.47;;;;;;;;;;5044020;28;20469;-79
2021/03/16 09:02:00;;;;;;;16.02;5.15;;;;;;;;;;5060305;28;20088;-78
2021/03/16 09:04:26;;;;;;;14.77;5.60;;;;;;;;;;5044208;28;20064;-77
2021/03/16 09:06:55;;;;;;;12.20;4.72;;;;;;;;;;5037953;28;20025;-80
2021/03/16 09:09:31;;;;;;;13.13;4.95;;;;;;;;;;5050383;28;20040;-80
2021/03/16 09:11:58;;;;;;;9.20;4.25;;;;;;;;;;5037264;28;20044;-84
2021/03/16 09:14:24;;;;;;;12.25;4.18;;;;;;;;;;5037774;28;20029;-77
2021/03/16 09:16:54;;;;;;;12.38;4.93;;;;;;;;;;5045251;28;20033;-78
2021/03/16 09:19:21;;;;;;;9.73;3.63;;;;;;;;;;5044843;28;20032;-78
2021/03/16 09:21:48;;;;;;;6.95;3.53;;;;;;;;;;5047436;28;20032;-83
2021/03/16 09:24:14;;;;;;;6.65;3.65;;;;;;;;;;5055010;28;20025;-80
2021/03/16 09:26:41;;;;;;;9.73;4.07;;;;;;;;;;5051782;28;20033;-81
2021/03/16 09:29:07;;;;;;;11.20;4.32;;;;;;;;;;5046683;28;20065;-80
2021/03/16 09:31:34;;;;;;;8.35;4.22;;;;;;;;;;5048375;28;20056;-81
2021/03/16 09:34:00;;;;;;;11.23;4.72;;;;;;;;;;5050034;28;20053;-80
2021/03/16 09:36:26;;;;;;;10.15;3.70;;;;;;;;;;5045222;28;20060;-81
2021/03/16 09:39:01;;;;;;;7.00;3.53;;;;;;;;;;5044626;28;20460;-80
2021/03/16 09:41:27;;;;;;;9.88;4.75;;;;;;;;;;5042978;28;20028;-82
2021/03/16 09:43:55;;;;;;;10.27;5.20;;;;;;;;;;5042878;28;20021;-77
2021/03/16 09:46:21;;;;;;;10.60;5.37;;;;;;;;;;5041503;28;20043;-81
2021/03/16 09:48:48;;;;;;;13.30;5.00;;;;;;;;;;5042760;28;20029;-78
2021/03/16 09:51:15;;;;;;;10.25;5.80;;;;;;;;;;5042863;28;20081;-81
2021/03/16 09:53:47;;;;;;;8.75;4.75;;;;;;;;;;5040002;28;20025;-80
2021/03/16 09:56:14;;;;;;;12.25;4.85;;;;;;;;;;5041514;28;20036;-79
2021/03/16 09:58:46;;;;;;;14.63;6.00;;;;;;;;;;5043888;28;20025;-80
2021/03/16 10:01:12;;;;;;;12.50;4.90;;;;;;;;;;5043857;28;20477;-80
2021/03/16 10:03:38;;;;;;;10.88;5.00;;;;;;;;;;5046566;28;20036;-80
2021/03/16 10:06:05;;;;;;;11.85;4.55;;;;;;;;;;5047853;28;20556;-80
2021/03/16 10:08:31;;;;;;;11.02;3.90;;;;;;;;;;5036984;28;20029;-79
2021/03/16 10:10:57;;;;;;;9.33;3.60;;;;;;;;;;5042746;28;20359;-79
2021/03/16 10:13:32;;;;;;;6.43;3.83;;;;;;;;;;5040332;28;20036;-83
2021/03/16 10:16:06;;;;;;;8.40;3.60;;;;;;;;;;5032690;28;20126;-82
2021/03/16 10:18:36;;;;;;;11.35;3.90;;;;;;;;;;5043969;28;20033;-80
2021/03/16 10:21:02;;;;;;;7.70;3.60;;;;;;;;;;5049317;28;20033;-81
2021/03/16 10:23:31;;;;;;;13.02;4.43;;;;;;;;;;5044464;28;20100;-78
2021/03/16 10:25:58;;;;;;;10.88;3.17;;;;;;;;;;5035720;28;20033;-80
2021/03/16 10:28:38;;;;;;;7.07;3.20;;;;;;;;;;5047018;28;20399;-79
2021/03/16 10:31:17;;;;;;;10.20;3.70;;;;;;;;;;5045056;28;20083;-80
2021/03/16 10:33:43;;;;;;;4.70;2.28;;;;;;;;;;5037331;28;20072;-77
2021/03/16 10:36:09;;;;;;;8.88;3.83;;;;;;;;;;5038295;28;20037;-78
2021/03/16 10:38:36;;;;;;;5.88;3.00;;;;;;;;;;5040659;28;20033;-78
2021/03/16 10:41:02;;;;;;;9.55;3.40;;;;;;;;;;5038697;28;20112;-78
2021/03/16 10:43:28;;;;;;;10.32;3.80;;;;;;;;;;5045677;28;20108;-78
2021/03/16 10:45:58;;;;;;;8.60;3.20;;;;;;;;;;5040607;28;20029;-77
2021/03/16 10:48:24;;;;;;;7.30;2.75;;;;;;;;;;5037507;28;20223;-79
2021/03/16 10:50:50;;;;;;;3.88;1.90;;;;;;;;;;5042225;28;20029;-80
2021/03/16 10:53:17;;;;;;;8.05;3.10;;;;;;;;;;5047916;28;20515;-78
2021/03/16 10:55:43;;;;;;;4.85;2.10;;;;;;;;;;5040049;28;20052;-77
2021/03/16 10:58:09;;;;;;;8.07;3.53;;;;;;;;;;5048321;28;20036;-78
2021/03/16 11:00:35;;;;;;;8.73;3.55;;;;;;;;;;5043914;28;20037;-77
2021/03/16 11:03:02;;;;;;;7.43;3.35;;;;;;;;;;5050349;28;20509;-77
2021/03/16 11:05:28;;;;;;;5.75;2.40;;;;;;;;;;5048069;28;20048;-79
2021/03/16 11:07:54;;;;;;;6.75;2.78;;;;;;;;;;5044120;28;20025;-81
2021/03/16 11:10:20;;;;;;;6.90;2.35;;;;;;;;;;5043717;28;20036;-79
2021/03/16 11:12:46;;;;;;;5.93;1.85;;;;;;;;;;5045892;28;20151;-80
2021/03/16 11:15:12;;;;;;;8.40;1.80;;;;;;;;;;5042563;28;20064;-81
2021/03/16 11:17:38;;;;;;;5.82;1.70;;;;;;;;;;5041588;28;20033;-79
2021/03/16 11:20:05;;;;;;;7.10;2.05;;;;;;;;;;5034224;28;20107;-81
2021/03/16 11:22:31;;;;;;;5.50;1.63;;;;;;;;;;5037255;28;20040;-78
2021/03/16 11:24:56;;;;;;;5.32;2.30;;;;;;;;;;5033708;28;20030;-78
2021/03/16 11:27:22;;;;;;;8.63;2.20;;;;;;;;;;5043282;28;20087;-76
2021/03/16 11:29:48;;;;;;;8.43;2.50;;;;;;;;;;5033082;28;20478;-79
2021/03/16 11:32:14;;;;;;;7.75;2.30;;;;;;;;;;5035201;28;20021;-79
2021/03/16 11:34:40;;;;;;;9.48;2.47;;;;;;;;;;5043329;28;20052;-81
2021/03/16 11:37:06;;;;;;;6.95;2.03;;;;;;;;;;5045530;28;20036;-77
2021/03/16 11:39:33;;;;;;;7.13;1.85;;;;;;;;;;5039252;28;20036;-78
2021/03/16 11:41:59;;;;;;;3.67;1.58;;;;;;;;;;5037830;28;20126;-79
2021/03/16 11:44:25;;;;;;;5.18;1.65;;;;;;;;;;5044653;28;20063;-80
2021/03/16 11:46:51;;;;;;;5.78;2.30;;;;;;;;;;5044211;28;20036;-81
2021/03/16 11:49:17;;;;;;;5.07;1.60;;;;;;;;;;5045872;28;20039;-82
2021/03/16 11:51:43;;;;;;;6.22;2.05;;;;;;;;;;5050245;28;20041;-80
2021/03/16 11:54:09;;;;;;;2.92;1.77;;;;;;;;;;5040953;28;20040;-80
2021/03/16 11:56:35;;;;;;;6.68;2.05;;;;;;;;;;5045229;28;20034;-78
2021/03/16 11:59:01;;;;;;;6.22;1.73;;;;;;;;;;5046035;28;20138;-81
2021/03/16 12:01:27;;;;;;;7.53;1.88;;;;;;;;;;5043040;28;20040;-82
2021/03/16 12:03:53;;;;;;;3.20;1.60;;;;;;;;;;5045254;28;20071;-78
2021/03/16 12:06:19;;;;;;;3.80;1.73;;;;;;;;;;5044049;28;20029;-78
2021/03/16 12:11:48;;;;;;;6.45;2.28;;;;;;;;;;5043006;28;20082;-79
2021/03/16 12:14:14;;;;;;;3.72;1.42;;;;;;;;;;5045334;28;20041;-78
2021/03/16 12:16:40;;;;;;;6.32;1.83;;;;;;;;;;5044892;28;20028;-78
2021/03/16 12:19:06;;;;;;;4.88;2.47;;;;;;;;;;5050279;28;20063;-76
2021/03/16 12:21:32;;;;;;;7.57;2.17;;;;;;;;;;5038799;28;20107;-77
2021/03/16 12:23:58;;;;;;;6.68;2.35;;;;;;;;;;5039125;28;20196;-76
2021/03/16 12:26:24;;;;;;;6.13;2.30;;;;;;;;;;5033121;28;20030;-77
2021/03/16 12:28:50;;;;;;;9.80;2.47;;;;;;;;;;5043345;28;20021;-75
2021/03/16 12:31:16;;;;;;;7.00;2.60;;;;;;;;;;5050202;28;20040;-77
2021/03/16 12:33:42;;;;;;;6.35;2.30;;;;;;;;;;5039714;28;20057;-77
2021/03/16 12:36:09;;;;;;;6.60;2.50;;;;;;;;;;5030987;28;20029;-76
2021/03/16 12:38:36;;;;;;;8.50;2.85;;;;;;;;;;5046411;28;20031;-78
2021/03/16 12:41:02;;;;;;;7.13;2.95;;;;;;;;;;5052285;28;20122;-77
2021/03/16 12:43:29;;;;;;;9.23;3.08;;;;;;;;;;5050128;28;20136;-76
2021/03/16 12:45:55;;;;;;;6.68;2.90;;;;;;;;;;5039612;28;20501;-78
2021/03/16 12:48:21;;;;;;;6.63;2.42;;;;;;;;;;5040234;28;20041;-78
2021/03/16 12:50:47;;;;;;;7.57;3.03;;;;;;;;;;5039267;28;20060;-77
2021/03/16 12:53:13;;;;;;;6.20;2.90;;;;;;;;;;5039444;28;20045;-76
2021/03/16 12:55:40;;;;;;;4.70;2.38;;;;;;;;;;5047662;28;20040;-77
2021/03/16 12:58:06;;;;;;;6.35;2.30;;;;;;;;;;5048016;28;20036;-77
2021/03/16 13:00:31;;;;;;;6.65;2.08;;;;;;;;;;5045168;28;20037;-77
2021/03/16 13:03:02;;;;;;;4.43;2.13;;;;;;;;;;5036360;28;20037;-78
2021/03/16 13:05:30;;;;;;;6.63;2.95;;;;;;;;;;5037166;28;20084;-80
2021/03/16 13:07:57;;;;;;;7.00;2.67;;;;;;;;;;5039385;28;20052;-80
2021/03/16 13:10:23;;;;;;;8.65;2.20;;;;;;;;;;5051481;28;20390;-77
2021/03/16 13:12:49;;;;;;;6.20;1.92;;;;;;;;;;5048728;28;20025;-78
2021/03/16 13:15:15;;;;;;;6.95;2.33;;;;;;;;;;5064153;28;20067;-80
2021/03/16 13:17:41;;;;;;;5.40;1.75;;;;;;;;;;5050331;28;20025;-81
2021/03/16 13:20:07;;;;;;;9.82;2.00;;;;;;;;;;5047586;28;20034;-78
2021/03/16 13:22:34;;;;;;;5.95;2.10;;;;;;;;;;5044128;28;20025;-81
2021/03/16 13:25:00;;;;;;;7.13;2.22;;;;;;;;;;5042415;28;20102;-80
2021/03/16 13:27:26;;;;;;;6.22;2.50;;;;;;;;;;5038225;28;20104;-81
2021/03/16 13:29:52;;;;;;;4.50;2.17;;;;;;;;;;5042316;28;20076;-81
2021/03/16 13:32:18;;;;;;;4.57;2.10;;;;;;;;;;5034837;28;20091;-82
2021/03/16 13:34:44;;;;;;;5.47;2.45;;;;;;;;;;5044985;28;20485;-80
2021/03/16 13:37:12;;;;;;;6.35;2.25;;;;;;;;;;5052385;28;20028;-81
2021/03/16 13:39:38;;;;;;;7.10;2.47;;;;;;;;;;5048004;28;20526;-81
2021/03/16 13:42:04;;;;;;;7.65;1.75;;;;;;;;;;5050945;28;20082;-79
2021/03/16 13:44:30;;;;;;;6.03;1.80;;;;;;;;;;5043051;28;20033;-80
2021/03/16 13:46:57;;;;;;;5.57;2.17;;;;;;;;;;5036775;28;20036;-82
2021/03/16 13:49:23;;;;;;;5.93;2.20;;;;;;;;;;5053862;28;20084;-78
2021/03/16 13:51:49;;;;;;;9.10;2.50;;;;;;;;;;5038576;28;20029;-80
2021/03/16 13:54:15;;;;;;;7.38;2.45;;;;;;;;;;5042441;28;20109;-78
2021/03/16 13:56:41;;;;;;;6.00;2.17;;;;;;;;;;5044603;28;20021;-78
2021/03/16 13:59:07;;;;;;;6.00;2.10;;;;;;;;;;5039228;28;20578;-78
2021/03/16 14:01:33;;;;;;;4.93;2.13;;;;;;;;;;5048496;28;20079;-78
2021/03/16 14:03:59;;;;;;;4.55;2.20;;;;;;;;;;5042332;28;20029;-77
2021/03/16 14:06:25;;;;;;;4.07;2.13;;;;;;;;;;5045320;28;20041;-80
2021/03/16 14:08:51;;;;;;;5.55;2.03;;;;;;;;;;5042519;28;20095;-80
2021/03/16 14:11:17;;;;;;;7.85;2.53;;;;;;;;;;5047615;28;20043;-79
2021/03/16 14:13:43;;;;;;;6.25;2.10;;;;;;;;;;5048025;28;20037;-79
2021/03/16 14:16:10;;;;;;;5.88;1.98;;;;;;;;;;5040987;28;20404;-81
2021/03/16 14:18:36;;;;;;;8.85;2.40;;;;;;;;;;5041255;28;20093;-80
2021/03/16 14:21:01;;;;;;;9.60;2.30;;;;;;;;;;5065074;28;20033;-78
2021/03/16 14:23:27;;;;;;;6.80;2.30;;;;;;;;;;5054924;28;20151;-79
2021/03/16 14:25:53;;;;;;;8.73;2.53;;;;;;;;;;5073772;28;20029;-79
2021/03/16 14:28:19;;;;;;;6.53;2.80;;;;;;;;;;5059997;28;20039;-79
2021/03/16 14:30:46;;;;;;;7.50;2.42;;;;;;;;;;5053129;28;20029;-77
2021/03/16 14:33:12;;;;;;;6.32;2.40;;;;;;;;;;5051847;28;20133;-78
2021/03/16 14:35:38;;;;;;;6.18;2.40;;;;;;;;;;5052292;28;20444;-80
2021/03/16 14:38:04;;;;;;;12.10;4.40;;;;;;;;;;5051676;28;20039;-80